sensor_id;sensor_type;location;lat;lon;timestamp;temperature;humidity
11989;DHT22;6054;50.966;7.094;2023-04-06T00:00:22;13.90;34.00
11989;DHT22;6054;50.966;7.094;2023-04-06T00:02:50;13.70;33.80
11989;DHT22;6054;50.966;7.094;2023-04-06T00:05:18;13.70;33.70
11989;DHT22;6054;50.966;7.094;2023-04-06T00:07:45;13.60;34.00
11989;DHT22;6054;50.966;7.094;2023-04-06T00:10:12;13.60;34.00
11989;DHT22;6054;50.966;7.094;2023-04-06T00:12:39;13.60;34.00
11989;DHT22;6054;50.966;7.094;2023-04-06T00:15:06;13.60;34.20
11989;DHT22;6054;50.966;7.094;2023-04-06T00:17:33;13.50;34.50
11989;DHT22;6054;50.966;7.094;2023-04-06T00:20:02;13.50;34.30
11989;DHT22;6054;50.966;7.094;2023-04-06T00:22:29;13.50;34.60
11989;DHT22;6054;50.966;7.094;2023-04-06T00:24:56;13.50;34.50
11989;DHT22;6054;50.966;7.094;2023-04-06T00:27:23;13.40;34.70
11989;DHT22;6054;50.966;7.094;2023-04-06T00:29:50;13.60;35.30
11989;DHT22;6054;50.966;7.094;2023-04-06T00:32:17;13.60;34.80
11989;DHT22;6054;50.966;7.094;2023-04-06T00:34:44;13.40;34.70
11989;DHT22;6054;50.966;7.094;2023-04-06T00:37:12;13.50;34.90
11989;DHT22;6054;50.966;7.094;2023-04-06T00:39:39;13.30;34.60
11989;DHT22;6054;50.966;7.094;2023-04-06T00:42:10;13.20;34.70
11989;DHT22;6054;50.966;7.094;2023-04-06T00:44:38;13.20;35.40
11989;DHT22;6054;50.966;7.094;2023-04-06T00:47:05;13.30;35.00
11989;DHT22;6054;50.966;7.094;2023-04-06T00:49:32;13.20;34.90
11989;DHT22;6054;50.966;7.094;2023-04-06T00:51:59;13.10;34.90
11989;DHT22;6054;50.966;7.094;2023-04-06T00:54:28;13.10;34.90
11989;DHT22;6054;50.966;7.094;2023-04-06T00:56:56;13.10;35.20
11989;DHT22;6054;50.966;7.094;2023-04-06T00:59:23;13.20;35.40
11989;DHT22;6054;50.966;7.094;2023-04-06T01:01:49;13.00;35.10
11989;DHT22;6054;50.966;7.094;2023-04-06T01:04:16;13.00;35.20
11989;DHT22;6054;50.966;7.094;2023-04-06T01:06:43;13.00;35.10
11989;DHT22;6054;50.966;7.094;2023-04-06T01:09:10;13.00;35.30
11989;DHT22;6054;50.966;7.094;2023-04-06T01:11:39;12.90;35.20
11989;DHT22;6054;50.966;7.094;2023-04-06T01:14:05;12.90;35.10
11989;DHT22;6054;50.966;7.094;2023-04-06T01:16:33;12.80;35.30
11989;DHT22;6054;50.966;7.094;2023-04-06T01:19:00;12.80;35.60
11989;DHT22;6054;50.966;7.094;2023-04-06T01:21:27;12.80;35.50
11989;DHT22;6054;50.966;7.094;2023-04-06T01:23:55;12.70;35.30
11989;DHT22;6054;50.966;7.094;2023-04-06T01:26:22;12.70;35.50
11989;DHT22;6054;50.966;7.094;2023-04-06T01:28:49;12.80;35.50
11989;DHT22;6054;50.966;7.094;2023-04-06T01:31:16;12.70;35.40
11989;DHT22;6054;50.966;7.094;2023-04-06T01:33:43;12.60;35.50
11989;DHT22;6054;50.966;7.094;2023-04-06T01:36:10;12.60;35.50
11989;DHT22;6054;50.966;7.094;2023-04-06T01:38:37;12.50;35.50
11989;DHT22;6054;50.966;7.094;2023-04-06T01:41:06;12.50;35.60
11989;DHT22;6054;50.966;7.094;2023-04-06T01:43:33;12.70;35.90
11989;DHT22;6054;50.966;7.094;2023-04-06T01:46:00;12.40;35.80
11989;DHT22;6054;50.966;7.094;2023-04-06T01:48:27;12.40;36.00
11989;DHT22;6054;50.966;7.094;2023-04-06T01:50:54;12.40;35.70
11989;DHT22;6054;50.966;7.094;2023-04-06T01:53:21;12.40;35.90
11989;DHT22;6054;50.966;7.094;2023-04-06T01:55:48;12.30;35.90
11989;DHT22;6054;50.966;7.094;2023-04-06T01:58:16;12.30;35.80
11989;DHT22;6054;50.966;7.094;2023-04-06T02:00:43;12.40;35.90
11989;DHT22;6054;50.966;7.094;2023-04-06T02:03:10;12.40;36.00
11989;DHT22;6054;50.966;7.094;2023-04-06T02:05:36;12.20;35.90
11989;DHT22;6054;50.966;7.094;2023-04-06T02:08:04;12.20;36.30
11989;DHT22;6054;50.966;7.094;2023-04-06T02:10:31;12.20;36.80
11989;DHT22;6054;50.966;7.094;2023-04-06T02:12:58;12.10;36.20
11989;DHT22;6054;50.966;7.094;2023-04-06T02:15:26;12.10;36.20
11989;DHT22;6054;50.966;7.094;2023-04-06T02:17:53;12.10;36.30
11989;DHT22;6054;50.966;7.094;2023-04-06T02:20:20;12.00;36.10
11989;DHT22;6054;50.966;7.094;2023-04-06T02:22:47;12.10;37.00
11989;DHT22;6054;50.966;7.094;2023-04-06T02:25:14;12.10;36.50
11989;DHT22;6054;50.966;7.094;2023-04-06T02:27:41;11.90;36.30
11989;DHT22;6054;50.966;7.094;2023-04-06T02:30:09;12.10;36.50
11989;DHT22;6054;50.966;7.094;2023-04-06T02:32:37;11.90;36.70
11989;DHT22;6054;50.966;7.094;2023-04-06T02:35:05;11.80;36.40
11989;DHT22;6054;50.966;7.094;2023-04-06T02:37:32;11.80;36.40
11989;DHT22;6054;50.966;7.094;2023-04-06T02:39:59;12.00;36.60
11989;DHT22;6054;50.966;7.094;2023-04-06T02:42:25;11.80;36.50
11989;DHT22;6054;50.966;7.094;2023-04-06T02:44:52;11.90;36.70
11989;DHT22;6054;50.966;7.094;2023-04-06T02:47:19;11.70;36.50
11989;DHT22;6054;50.966;7.094;2023-04-06T02:49:47;11.60;36.40
11989;DHT22;6054;50.966;7.094;2023-04-06T02:52:14;11.80;36.30
11989;DHT22;6054;50.966;7.094;2023-04-06T02:54:43;11.60;36.70
11989;DHT22;6054;50.966;7.094;2023-04-06T02:57:10;11.60;36.60
11989;DHT22;6054;50.966;7.094;2023-04-06T02:59:37;11.50;36.70
11989;DHT22;6054;50.966;7.094;2023-04-06T03:02:04;11.70;36.90
11989;DHT22;6054;50.966;7.094;2023-04-06T03:04:31;11.70;36.90
11989;DHT22;6054;50.966;7.094;2023-04-06T03:06:59;11.40;36.60
11989;DHT22;6054;50.966;7.094;2023-04-06T03:09:26;11.40;36.70
11989;DHT22;6054;50.966;7.094;2023-04-06T03:11:53;11.40;36.80
11989;DHT22;6054;50.966;7.094;2023-04-06T03:14:20;11.50;37.10
11989;DHT22;6054;50.966;7.094;2023-04-06T03:16:48;11.30;37.00
11989;DHT22;6054;50.966;7.094;2023-04-06T03:19:15;11.50;37.30
11989;DHT22;6054;50.966;7.094;2023-04-06T03:21:42;11.20;37.00
11989;DHT22;6054;50.966;7.094;2023-04-06T03:24:10;11.20;37.10
11989;DHT22;6054;50.966;7.094;2023-04-06T03:26:38;11.20;37.10
11989;DHT22;6054;50.966;7.094;2023-04-06T03:29:05;11.20;37.10
11989;DHT22;6054;50.966;7.094;2023-04-06T03:31:32;11.20;37.20
11989;DHT22;6054;50.966;7.094;2023-04-06T03:33:58;11.10;37.10
11989;DHT22;6054;50.966;7.094;2023-04-06T03:36:25;11.10;37.00
11989;DHT22;6054;50.966;7.094;2023-04-06T03:38:52;11.40;37.50
11989;DHT22;6054;50.966;7.094;2023-04-06T03:41:21;11.20;37.10
11989;DHT22;6054;50.966;7.094;2023-04-06T03:43:48;11.20;37.10
11989;DHT22;6054;50.966;7.094;2023-04-06T03:46:15;11.30;37.20
11989;DHT22;6054;50.966;7.094;2023-04-06T03:48:42;11.00;37.10
11989;DHT22;6054;50.966;7.094;2023-04-06T03:51:09;11.00;37.10
11989;DHT22;6054;50.966;7.094;2023-04-06T03:53:35;11.00;37.40
11989;DHT22;6054;50.966;7.094;2023-04-06T03:56:03;10.90;37.60
11989;DHT22;6054;50.966;7.094;2023-04-06T03:58:32;10.90;37.70
11989;DHT22;6054;50.966;7.094;2023-04-06T04:00:59;11.10;37.70
11989;DHT22;6054;50.966;7.094;2023-04-06T04:03:25;10.80;37.50
11989;DHT22;6054;50.966;7.094;2023-04-06T04:05:53;10.80;37.60
11989;DHT22;6054;50.966;7.094;2023-04-06T04:08:20;10.90;37.60
11989;DHT22;6054;50.966;7.094;2023-04-06T04:10:47;10.90;37.90
11989;DHT22;6054;50.966;7.094;2023-04-06T04:13:14;10.90;37.80
11989;DHT22;6054;50.966;7.094;2023-04-06T04:15:42;10.70;37.80
11989;DHT22;6054;50.966;7.094;2023-04-06T04:18:09;11.00;37.70
11989;DHT22;6054;50.966;7.094;2023-04-06T04:20:36;10.70;38.00
11989;DHT22;6054;50.966;7.094;2023-04-06T04:23:03;10.80;38.00
11989;DHT22;6054;50.966;7.094;2023-04-06T04:25:30;10.60;37.80
11989;DHT22;6054;50.966;7.094;2023-04-06T04:27:56;10.70;38.00
11989;DHT22;6054;50.966;7.094;2023-04-06T04:30:23;10.70;38.00
11989;DHT22;6054;50.966;7.094;2023-04-06T04:32:51;10.60;37.90
11989;DHT22;6054;50.966;7.094;2023-04-06T04:35:18;10.60;38.10
11989;DHT22;6054;50.966;7.094;2023-04-06T04:37:45;10.80;38.10
11989;DHT22;6054;50.966;7.094;2023-04-06T04:40:12;10.50;38.10
11989;DHT22;6054;50.966;7.094;2023-04-06T04:42:39;10.50;38.10
11989;DHT22;6054;50.966;7.094;2023-04-06T04:45:06;10.50;38.00
11989;DHT22;6054;50.966;7.094;2023-04-06T04:47:33;10.50;38.30
11989;DHT22;6054;50.966;7.094;2023-04-06T04:50:02;10.40;37.80
11989;DHT22;6054;50.966;7.094;2023-04-06T04:52:28;10.40;38.00
11989;DHT22;6054;50.966;7.094;2023-04-06T04:54:55;10.70;38.30
11989;DHT22;6054;50.966;7.094;2023-04-06T04:57:22;10.40;38.00
11989;DHT22;6054;50.966;7.094;2023-04-06T04:59:49;10.30;38.00
11989;DHT22;6054;50.966;7.094;2023-04-06T05:02:16;10.30;37.80
11989;DHT22;6054;50.966;7.094;2023-04-06T05:04:43;10.30;38.30
11989;DHT22;6054;50.966;7.094;2023-04-06T05:07:11;10.30;38.30
11989;DHT22;6054;50.966;7.094;2023-04-06T05:09:38;10.30;38.30
11989;DHT22;6054;50.966;7.094;2023-04-06T05:12:05;10.50;38.70
11989;DHT22;6054;50.966;7.094;2023-04-06T05:14:32;10.20;38.60
11989;DHT22;6054;50.966;7.094;2023-04-06T05:16:59;10.30;38.50
11989;DHT22;6054;50.966;7.094;2023-04-06T05:19:26;10.30;38.50
11989;DHT22;6054;50.966;7.094;2023-04-06T05:21:53;10.20;38.50
11989;DHT22;6054;50.966;7.094;2023-04-06T05:24:21;10.20;38.50
11989;DHT22;6054;50.966;7.094;2023-04-06T05:26:48;10.20;38.70
11989;DHT22;6054;50.966;7.094;2023-04-06T05:29:16;10.20;38.70
11989;DHT22;6054;50.966;7.094;2023-04-06T05:31:43;10.20;38.80
11989;DHT22;6054;50.966;7.094;2023-04-06T05:34:10;10.20;38.80
11989;DHT22;6054;50.966;7.094;2023-04-06T05:36:38;10.20;38.70
11989;DHT22;6054;50.966;7.094;2023-04-06T05:39:05;10.20;38.80
11989;DHT22;6054;50.966;7.094;2023-04-06T05:41:34;10.40;39.20
11989;DHT22;6054;50.966;7.094;2023-04-06T05:44:01;10.30;39.10
11989;DHT22;6054;50.966;7.094;2023-04-06T05:46:28;10.50;39.10
11989;DHT22;6054;50.966;7.094;2023-04-06T05:48:55;10.30;39.40
11989;DHT22;6054;50.966;7.094;2023-04-06T05:51:21;10.40;39.50
11989;DHT22;6054;50.966;7.094;2023-04-06T05:53:48;10.40;39.50
11989;DHT22;6054;50.966;7.094;2023-04-06T05:56:15;10.70;39.50
11989;DHT22;6054;50.966;7.094;2023-04-06T05:58:43;10.50;39.30
11989;DHT22;6054;50.966;7.094;2023-04-06T06:01:10;10.80;40.00
11989;DHT22;6054;50.966;7.094;2023-04-06T06:03:37;10.80;40.10
11989;DHT22;6054;50.966;7.094;2023-04-06T06:06:04;10.60;40.00
11989;DHT22;6054;50.966;7.094;2023-04-06T06:08:31;10.60;40.00
11989;DHT22;6054;50.966;7.094;2023-04-06T06:10:58;10.70;39.90
11989;DHT22;6054;50.966;7.094;2023-04-06T06:13:25;10.80;39.80
11989;DHT22;6054;50.966;7.094;2023-04-06T06:15:54;10.80;40.40
11989;DHT22;6054;50.966;7.094;2023-04-06T06:18:20;10.80;39.60
11989;DHT22;6054;50.966;7.094;2023-04-06T06:20:47;10.90;39.80
11989;DHT22;6054;50.966;7.094;2023-04-06T06:23:14;11.00;39.70
11989;DHT22;6054;50.966;7.094;2023-04-06T06:25:41;11.00;39.60
11989;DHT22;6054;50.966;7.094;2023-04-06T06:28:08;11.30;40.30
11989;DHT22;6054;50.966;7.094;2023-04-06T06:30:35;11.20;40.00
11989;DHT22;6054;50.966;7.094;2023-04-06T06:33:03;11.20;39.00
11989;DHT22;6054;50.966;7.094;2023-04-06T06:35:30;11.30;38.60
11989;DHT22;6054;50.966;7.094;2023-04-06T06:37:57;11.40;38.70
11989;DHT22;6054;50.966;7.094;2023-04-06T06:40:24;11.50;38.50
11989;DHT22;6054;50.966;7.094;2023-04-06T06:42:51;11.60;37.60
11989;DHT22;6054;50.966;7.094;2023-04-06T06:45:18;11.60;37.70
11989;DHT22;6054;50.966;7.094;2023-04-06T06:47:46;11.60;37.20
11989;DHT22;6054;50.966;7.094;2023-04-06T06:50:14;11.70;37.10
11989;DHT22;6054;50.966;7.094;2023-04-06T06:52:41;11.80;37.20
11989;DHT22;6054;50.966;7.094;2023-04-06T06:55:09;11.90;37.00
11989;DHT22;6054;50.966;7.094;2023-04-06T06:57:36;12.00;36.60
11989;DHT22;6054;50.966;7.094;2023-04-06T07:00:04;12.00;36.50
11989;DHT22;6054;50.966;7.094;2023-04-06T07:02:34;12.10;36.80
11989;DHT22;6054;50.966;7.094;2023-04-06T07:05:01;12.30;37.00
11989;DHT22;6054;50.966;7.094;2023-04-06T07:07:30;12.20;36.40
11989;DHT22;6054;50.966;7.094;2023-04-06T07:09:56;12.30;36.40
11989;DHT22;6054;50.966;7.094;2023-04-06T07:12:23;12.40;36.00
11989;DHT22;6054;50.966;7.094;2023-04-06T07:14:50;12.40;35.80
11989;DHT22;6054;50.966;7.094;2023-04-06T07:17:17;12.50;35.80
11989;DHT22;6054;50.966;7.094;2023-04-06T07:19:44;12.60;35.90
11989;DHT22;6054;50.966;7.094;2023-04-06T07:22:11;12.70;36.00
11989;DHT22;6054;50.966;7.094;2023-04-06T07:24:39;12.80;35.50
11989;DHT22;6054;50.966;7.094;2023-04-06T07:27:06;12.80;35.20
11989;DHT22;6054;50.966;7.094;2023-04-06T07:29:33;12.90;35.10
11989;DHT22;6054;50.966;7.094;2023-04-06T07:32:00;13.00;35.30
11989;DHT22;6054;50.966;7.094;2023-04-06T07:34:27;13.00;35.10
11989;DHT22;6054;50.966;7.094;2023-04-06T07:36:54;13.10;35.20
11989;DHT22;6054;50.966;7.094;2023-04-06T07:39:22;13.20;35.00
11989;DHT22;6054;50.966;7.094;2023-04-06T07:41:50;13.50;35.20
11989;DHT22;6054;50.966;7.094;2023-04-06T07:44:17;13.50;35.10
11989;DHT22;6054;50.966;7.094;2023-04-06T07:46:44;13.40;34.50
11989;DHT22;6054;50.966;7.094;2023-04-06T07:49:11;13.50;34.70
11989;DHT22;6054;50.966;7.094;2023-04-06T07:51:38;13.60;34.50
11989;DHT22;6054;50.966;7.094;2023-04-06T07:54:05;13.70;34.40
11989;DHT22;6054;50.966;7.094;2023-04-06T07:56:32;13.80;34.20
11989;DHT22;6054;50.966;7.094;2023-04-06T07:59:00;13.90;34.30
11989;DHT22;6054;50.966;7.094;2023-04-06T08:01:28;14.00;34.00
11989;DHT22;6054;50.966;7.094;2023-04-06T08:03:55;14.10;34.30
11989;DHT22;6054;50.966;7.094;2023-04-06T08:06:22;14.20;34.10
11989;DHT22;6054;50.966;7.094;2023-04-06T08:08:49;14.30;33.90
11989;DHT22;6054;50.966;7.094;2023-04-06T08:11:16;14.40;33.70
11989;DHT22;6054;50.966;7.094;2023-04-06T08:13:43;14.60;33.40
11989;DHT22;6054;50.966;7.094;2023-04-06T08:16:11;14.60;33.40
11989;DHT22;6054;50.966;7.094;2023-04-06T08:18:38;14.80;33.60
11989;DHT22;6054;50.966;7.094;2023-04-06T08:21:05;14.70;33.20
11989;DHT22;6054;50.966;7.094;2023-04-06T08:23:32;14.80;33.00
11989;DHT22;6054;50.966;7.094;2023-04-06T08:25:59;15.20;33.50
11989;DHT22;6054;50.966;7.094;2023-04-06T08:28:26;15.10;33.10
11989;DHT22;6054;50.966;7.094;2023-04-06T08:30:53;15.10;32.70
11989;DHT22;6054;50.966;7.094;2023-04-06T08:33:21;15.40;33.10
11989;DHT22;6054;50.966;7.094;2023-04-06T08:35:48;15.30;33.00
11989;DHT22;6054;50.966;7.094;2023-04-06T08:38:15;15.40;32.60
11989;DHT22;6054;50.966;7.094;2023-04-06T08:40:42;15.50;32.50
11989;DHT22;6054;50.966;7.094;2023-04-06T08:43:13;15.60;32.70
11989;DHT22;6054;50.966;7.094;2023-04-06T08:45:41;15.70;32.80
11989;DHT22;6054;50.966;7.094;2023-04-06T08:48:09;15.80;32.40
11989;DHT22;6054;50.966;7.094;2023-04-06T08:50:38;15.90;32.10
11989;DHT22;6054;50.966;7.094;2023-04-06T08:53:06;16.00;32.30
11989;DHT22;6054;50.966;7.094;2023-04-06T08:55:34;16.10;32.30
11989;DHT22;6054;50.966;7.094;2023-04-06T08:58:02;16.10;32.50
11989;DHT22;6054;50.966;7.094;2023-04-06T09:00:30;16.20;32.40
11989;DHT22;6054;50.966;7.094;2023-04-06T09:02:57;16.30;32.30
11989;DHT22;6054;50.966;7.094;2023-04-06T09:05:25;16.40;32.40
11989;DHT22;6054;50.966;7.094;2023-04-06T09:07:54;16.50;32.30
11989;DHT22;6054;50.966;7.094;2023-04-06T09:10:21;16.60;32.20
11989;DHT22;6054;50.966;7.094;2023-04-06T09:12:51;16.70;32.40
11989;DHT22;6054;50.966;7.094;2023-04-06T09:15:19;16.80;32.10
11989;DHT22;6054;50.966;7.094;2023-04-06T09:17:46;17.00;32.30
11989;DHT22;6054;50.966;7.094;2023-04-06T09:20:12;17.10;32.40
11989;DHT22;6054;50.966;7.094;2023-04-06T09:22:40;17.20;32.00
11989;DHT22;6054;50.966;7.094;2023-04-06T09:25:17;17.30;32.00
11989;DHT22;6054;50.966;7.094;2023-04-06T09:27:44;17.40;32.00
11989;DHT22;6054;50.966;7.094;2023-04-06T09:30:12;17.60;31.70
11989;DHT22;6054;50.966;7.094;2023-04-06T09:32:46;17.70;31.90
11989;DHT22;6054;50.966;7.094;2023-04-06T09:35:13;17.80;31.60
11989;DHT22;6054;50.966;7.094;2023-04-06T09:37:40;17.90;31.30
11989;DHT22;6054;50.966;7.094;2023-04-06T09:40:07;18.00;31.60
11989;DHT22;6054;50.966;7.094;2023-04-06T09:42:36;18.00;31.40
11989;DHT22;6054;50.966;7.094;2023-04-06T09:45:03;18.10;31.20
11989;DHT22;6054;50.966;7.094;2023-04-06T09:47:30;18.20;31.60
11989;DHT22;6054;50.966;7.094;2023-04-06T09:49:59;18.30;30.80
11989;DHT22;6054;50.966;7.094;2023-04-06T09:52:30;18.30;30.80
11989;DHT22;6054;50.966;7.094;2023-04-06T09:55:01;18.50;30.90
11989;DHT22;6054;50.966;7.094;2023-04-06T09:57:32;18.60;30.90
11989;DHT22;6054;50.966;7.094;2023-04-06T10:00:05;18.60;30.90
11989;DHT22;6054;50.966;7.094;2023-04-06T10:02:41;18.70;31.30
11989;DHT22;6054;50.966;7.094;2023-04-06T10:05:16;18.80;31.80
11989;DHT22;6054;50.966;7.094;2023-04-06T10:07:44;18.90;31.30
11989;DHT22;6054;50.966;7.094;2023-04-06T10:10:11;19.00;31.20
11989;DHT22;6054;50.966;7.094;2023-04-06T10:12:41;19.10;31.30
11989;DHT22;6054;50.966;7.094;2023-04-06T10:15:10;19.20;31.10
11989;DHT22;6054;50.966;7.094;2023-04-06T10:17:37;19.20;30.70
11989;DHT22;6054;50.966;7.094;2023-04-06T10:20:09;19.30;30.30
11989;DHT22;6054;50.966;7.094;2023-04-06T10:22:43;19.30;30.70
11989;DHT22;6054;50.966;7.094;2023-04-06T10:25:10;19.50;31.10
11989;DHT22;6054;50.966;7.094;2023-04-06T10:27:37;19.60;30.60
11989;DHT22;6054;50.966;7.094;2023-04-06T10:30:05;19.70;30.50
11989;DHT22;6054;50.966;7.094;2023-04-06T10:32:34;19.80;30.80
11989;DHT22;6054;50.966;7.094;2023-04-06T10:35:06;19.90;30.20
11989;DHT22;6054;50.966;7.094;2023-04-06T10:37:47;19.90;30.60
11989;DHT22;6054;50.966;7.094;2023-04-06T10:40:19;20.00;30.40
11989;DHT22;6054;50.966;7.094;2023-04-06T10:42:45;20.00;30.00
11989;DHT22;6054;50.966;7.094;2023-04-06T10:45:19;20.10;29.90
11989;DHT22;6054;50.966;7.094;2023-04-06T10:47:48;20.20;30.00
11989;DHT22;6054;50.966;7.094;2023-04-06T10:50:16;20.30;29.70
11989;DHT22;6054;50.966;7.094;2023-04-06T10:52:44;20.40;29.80
11989;DHT22;6054;50.966;7.094;2023-04-06T10:55:12;20.40;29.80
11989;DHT22;6054;50.966;7.094;2023-04-06T10:57:39;20.50;29.80
11989;DHT22;6054;50.966;7.094;2023-04-06T11:00:07;20.60;29.60
11989;DHT22;6054;50.966;7.094;2023-04-06T11:02:35;20.60;29.80
11989;DHT22;6054;50.966;7.094;2023-04-06T11:05:03;20.60;29.60
11989;DHT22;6054;50.966;7.094;2023-04-06T11:07:30;20.60;29.50
11989;DHT22;6054;50.966;7.094;2023-04-06T11:09:57;20.80;29.70
11989;DHT22;6054;50.966;7.094;2023-04-06T11:12:26;20.90;29.70
11989;DHT22;6054;50.966;7.094;2023-04-06T11:14:54;20.90;29.60
11989;DHT22;6054;50.966;7.094;2023-04-06T11:17:26;21.00;29.40
11989;DHT22;6054;50.966;7.094;2023-04-06T11:19:52;21.00;29.20
11989;DHT22;6054;50.966;7.094;2023-04-06T11:22:21;21.10;29.10
11989;DHT22;6054;50.966;7.094;2023-04-06T11:24:48;21.10;29.60
11989;DHT22;6054;50.966;7.094;2023-04-06T11:27:16;21.20;29.10
11989;DHT22;6054;50.966;7.094;2023-04-06T11:29:44;21.20;29.30
11989;DHT22;6054;50.966;7.094;2023-04-06T11:32:20;21.30;29.40
11989;DHT22;6054;50.966;7.094;2023-04-06T11:34:48;21.30;29.00
11989;DHT22;6054;50.966;7.094;2023-04-06T11:37:15;21.40;29.00
11989;DHT22;6054;50.966;7.094;2023-04-06T11:39:47;21.40;29.00
11989;DHT22;6054;50.966;7.094;2023-04-06T11:42:21;21.40;29.10
11989;DHT22;6054;50.966;7.094;2023-04-06T11:44:50;21.40;28.80
11989;DHT22;6054;50.966;7.094;2023-04-06T11:47:18;21.40;28.70
11989;DHT22;6054;50.966;7.094;2023-04-06T11:49:45;21.40;28.50
11989;DHT22;6054;50.966;7.094;2023-04-06T11:52:15;21.50;28.30
11989;DHT22;6054;50.966;7.094;2023-04-06T11:54:45;21.50;28.20
11989;DHT22;6054;50.966;7.094;2023-04-06T11:57:12;21.50;28.50
11989;DHT22;6054;50.966;7.094;2023-04-06T11:59:39;21.60;28.60
11989;DHT22;6054;50.966;7.094;2023-04-06T12:02:06;21.60;28.50
11989;DHT22;6054;50.966;7.094;2023-04-06T12:04:33;21.60;28.10
11989;DHT22;6054;50.966;7.094;2023-04-06T12:07:00;21.50;28.10
11989;DHT22;6054;50.966;7.094;2023-04-06T12:09:27;21.60;28.20
11989;DHT22;6054;50.966;7.094;2023-04-06T12:11:55;21.60;28.00
11989;DHT22;6054;50.966;7.094;2023-04-06T12:14:22;21.60;28.10
11989;DHT22;6054;50.966;7.094;2023-04-06T12:16:49;21.60;28.30
11989;DHT22;6054;50.966;7.094;2023-04-06T12:19:16;21.60;28.20
11989;DHT22;6054;50.966;7.094;2023-04-06T12:21:43;21.60;28.10
11989;DHT22;6054;50.966;7.094;2023-04-06T12:24:10;21.60;28.00
11989;DHT22;6054;50.966;7.094;2023-04-06T12:26:36;21.60;27.90
11989;DHT22;6054;50.966;7.094;2023-04-06T12:29:05;21.60;28.00
11989;DHT22;6054;50.966;7.094;2023-04-06T12:31:34;21.70;28.30
11989;DHT22;6054;50.966;7.094;2023-04-06T12:34:02;21.70;28.50
11989;DHT22;6054;50.966;7.094;2023-04-06T12:36:29;21.70;28.60
11989;DHT22;6054;50.966;7.094;2023-04-06T12:38:56;21.80;28.50
11989;DHT22;6054;50.966;7.094;2023-04-06T12:41:23;21.90;28.40
11989;DHT22;6054;50.966;7.094;2023-04-06T12:43:50;21.90;28.50
11989;DHT22;6054;50.966;7.094;2023-04-06T12:46:18;21.90;28.00
11989;DHT22;6054;50.966;7.094;2023-04-06T12:48:46;21.90;27.90
11989;DHT22;6054;50.966;7.094;2023-04-06T12:51:13;21.90;27.90
11989;DHT22;6054;50.966;7.094;2023-04-06T12:53:40;21.80;27.80
11989;DHT22;6054;50.966;7.094;2023-04-06T12:56:12;21.80;27.70
11989;DHT22;6054;50.966;7.094;2023-04-06T12:58:39;21.80;27.50
11989;DHT22;6054;50.966;7.094;2023-04-06T13:01:07;21.80;27.10
11989;DHT22;6054;50.966;7.094;2023-04-06T13:03:35;21.80;27.60
11989;DHT22;6054;50.966;7.094;2023-04-06T13:06:02;21.80;27.60
11989;DHT22;6054;50.966;7.094;2023-04-06T13:08:30;21.80;27.20
11989;DHT22;6054;50.966;7.094;2023-04-06T13:10:57;21.90;27.70
11989;DHT22;6054;50.966;7.094;2023-04-06T13:13:25;21.90;26.90
11989;DHT22;6054;50.966;7.094;2023-04-06T13:15:52;21.90;27.40
11989;DHT22;6054;50.966;7.094;2023-04-06T13:18:20;21.90;27.00
11989;DHT22;6054;50.966;7.094;2023-04-06T13:20:49;21.90;27.20
11989;DHT22;6054;50.966;7.094;2023-04-06T13:23:16;21.90;27.00
11989;DHT22;6054;50.966;7.094;2023-04-06T13:25:43;21.90;27.40
11989;DHT22;6054;50.966;7.094;2023-04-06T13:28:10;21.90;27.80
11989;DHT22;6054;50.966;7.094;2023-04-06T13:30:37;21.90;27.70
11989;DHT22;6054;50.966;7.094;2023-04-06T13:33:04;21.90;28.00
11989;DHT22;6054;50.966;7.094;2023-04-06T13:35:32;21.90;28.10
11989;DHT22;6054;50.966;7.094;2023-04-06T13:38:00;21.90;28.40
11989;DHT22;6054;50.966;7.094;2023-04-06T13:40:27;21.90;28.70
11989;DHT22;6054;50.966;7.094;2023-04-06T13:42:53;21.90;28.80
11989;DHT22;6054;50.966;7.094;2023-04-06T13:45:20;21.90;28.50
11989;DHT22;6054;50.966;7.094;2023-04-06T13:47:47;21.90;28.50
11989;DHT22;6054;50.966;7.094;2023-04-06T13:50:14;21.90;29.10
11989;DHT22;6054;50.966;7.094;2023-04-06T13:52:41;21.80;28.70
11989;DHT22;6054;50.966;7.094;2023-04-06T13:55:09;21.80;29.10
11989;DHT22;6054;50.966;7.094;2023-04-06T13:57:36;21.70;29.00
11989;DHT22;6054;50.966;7.094;2023-04-06T14:00:04;21.60;29.20
11989;DHT22;6054;50.966;7.094;2023-04-06T14:02:32;21.60;29.50
11989;DHT22;6054;50.966;7.094;2023-04-06T14:04:58;21.50;29.30
11989;DHT22;6054;50.966;7.094;2023-04-06T14:07:25;21.40;29.20
11989;DHT22;6054;50.966;7.094;2023-04-06T14:09:52;21.40;29.40
11989;DHT22;6054;50.966;7.094;2023-04-06T14:12:20;21.30;29.60
11989;DHT22;6054;50.966;7.094;2023-04-06T14:14:47;21.30;29.70
11989;DHT22;6054;50.966;7.094;2023-04-06T14:17:13;21.20;29.80
11989;DHT22;6054;50.966;7.094;2023-04-06T14:19:41;21.20;29.90
11989;DHT22;6054;50.966;7.094;2023-04-06T14:22:08;21.20;30.00
11989;DHT22;6054;50.966;7.094;2023-04-06T14:24:35;21.10;30.20
11989;DHT22;6054;50.966;7.094;2023-04-06T14:27:03;21.00;30.80
11989;DHT22;6054;50.966;7.094;2023-04-06T14:29:31;21.00;31.00
11989;DHT22;6054;50.966;7.094;2023-04-06T14:31:58;20.90;31.50
11989;DHT22;6054;50.966;7.094;2023-04-06T14:34:26;20.80;31.70
11989;DHT22;6054;50.966;7.094;2023-04-06T14:36:52;20.80;31.90
11989;DHT22;6054;50.966;7.094;2023-04-06T14:39:19;20.70;32.00
11989;DHT22;6054;50.966;7.094;2023-04-06T14:41:46;20.70;32.20
11989;DHT22;6054;50.966;7.094;2023-04-06T14:44:14;20.70;32.30
11989;DHT22;6054;50.966;7.094;2023-04-06T14:46:43;20.70;32.50
11989;DHT22;6054;50.966;7.094;2023-04-06T14:49:09;20.70;32.70
11989;DHT22;6054;50.966;7.094;2023-04-06T14:51:36;20.60;32.80
11989;DHT22;6054;50.966;7.094;2023-04-06T14:54:03;20.60;33.00
11989;DHT22;6054;50.966;7.094;2023-04-06T14:56:31;20.50;33.20
11989;DHT22;6054;50.966;7.094;2023-04-06T14:58:58;20.50;33.80
11989;DHT22;6054;50.966;7.094;2023-04-06T15:01:27;20.60;34.20
11989;DHT22;6054;50.966;7.094;2023-04-06T15:03:55;20.50;34.30
11989;DHT22;6054;50.966;7.094;2023-04-06T15:06:22;20.60;34.30
11989;DHT22;6054;50.966;7.094;2023-04-06T15:08:49;20.40;34.40
11989;DHT22;6054;50.966;7.094;2023-04-06T15:11:16;20.30;34.90
11989;DHT22;6054;50.966;7.094;2023-04-06T15:13:42;20.30;35.30
11989;DHT22;6054;50.966;7.094;2023-04-06T15:16:09;20.30;35.40
11989;DHT22;6054;50.966;7.094;2023-04-06T15:18:36;20.40;35.70
11989;DHT22;6054;50.966;7.094;2023-04-06T15:21:04;20.20;35.60
11989;DHT22;6054;50.966;7.094;2023-04-06T15:23:31;20.20;35.80
11989;DHT22;6054;50.966;7.094;2023-04-06T15:25:59;20.10;36.10
11989;DHT22;6054;50.966;7.094;2023-04-06T15:28:26;20.10;36.50
11989;DHT22;6054;50.966;7.094;2023-04-06T15:30:54;20.10;36.90
11989;DHT22;6054;50.966;7.094;2023-04-06T15:33:21;20.00;37.50
11989;DHT22;6054;50.966;7.094;2023-04-06T15:35:48;20.00;38.30
11989;DHT22;6054;50.966;7.094;2023-04-06T15:38:16;20.00;38.50
11989;DHT22;6054;50.966;7.094;2023-04-06T15:40:45;20.00;39.00
11989;DHT22;6054;50.966;7.094;2023-04-06T15:43:13;19.90;40.00
11989;DHT22;6054;50.966;7.094;2023-04-06T15:45:40;19.80;39.50